Time;durP1;ratioP1;P1;durP2;ratioP2;P2;SDS_P1;SDS_P2;PMS_P1;PMS_P2;Temp;Humidity;BMP_temperature;BMP_pressure;BME280_temperature;BME280_humidity;BME280_pressure;Samples;Min_cycle;Max_cycle;Signal;HPM_P1;HPM_P2
2022/06/15 00:02:10;;;;;;;9.25;4.00;;;;;;;;;;5073230;28;20048;-80
2022/06/15 00:04:39;;;;;;;7.35;4.03;;;13.70;99.90;;;;;;5073599;28;20060;-80
2022/06/15 00:07:05;;;;;;;7.80;3.70;;;;;;;;;;5055775;28;20380;-80
2022/06/15 00:09:31;;;;;;;8.32;3.78;;;;;;;;;;5038931;28;20524;-80
2022/06/15 00:11:57;;;;;;;13.85;3.90;;;;;;;;;;5073278;28;20273;-80
2022/06/15 00:14:27;;;;;;;9.88;3.30;;;13.50;99.90;;;;;;5073429;28;20049;-80
2022/06/15 00:16:53;;;;;;;5.75;3.75;;;;;;;;;;5055635;28;20065;-80
2022/06/15 00:19:20;;;;;;;6.28;3.40;;;13.30;99.90;;;;;;5055276;28;20407;-80
2022/06/15 00:21:46;;;;;;;6.70;3.50;;;;;;;;;;5072931;28;20525;-80
2022/06/15 00:24:12;;;;;;;8.52;3.28;;;;;;;;;;5073209;28;20057;-80
2022/06/15 00:26:39;;;;;;;7.43;3.58;;;13.20;99.90;;;;;;5055534;28;20442;-80
2022/06/15 00:29:06;;;;;;;9.35;3.58;;;13.20;99.90;;;;;;5073157;28;20052;-80
2022/06/15 00:31:32;;;;;;;8.82;3.95;;;;;;;;;;5072775;28;20193;-80
2022/06/15 00:33:58;;;;;;;9.65;4.13;;;;;;;;;;5072946;28;20433;-80
2022/06/15 00:36:24;;;;;;;11.02;4.60;;;;;;;;;;5054692;28;20059;-79
2022/06/15 00:38:53;;;;;;;10.00;4.32;;;13.00;99.90;;;;;;5054846;28;20049;-80
2022/06/15 00:41:34;;;;;;;11.27;4.30;;;12.90;99.90;;;;;;5073021;28;20040;-80
2022/06/15 00:44:21;;;;;;;10.15;4.15;;;12.80;99.90;;;;;;5072908;28;20056;-80
2022/06/15 00:46:55;;;;;;;7.57;3.97;;;12.80;99.90;;;;;;5073374;28;20048;-80
2022/06/15 00:49:30;;;;;;;11.48;4.80;;;12.70;99.90;;;;;;5075076;28;20394;-79
2022/06/15 00:52:04;;;;;;;9.68;4.38;;;12.70;99.90;;;;;;5075057;28;20804;-80
2022/06/15 00:54:31;;;;;;;10.90;3.92;;;;;;;;;;5058488;28;20082;-80
2022/06/15 00:57:01;;;;;;;10.20;3.80;;;;;;;;;;5075012;28;20518;-80
2022/06/15 01:01:57;;;;;;;8.30;3.65;;;12.60;99.90;;;;;;5050688;28;20139;-56
2022/06/15 01:04:25;;;;;;;9.68;3.47;;;12.30;99.90;;;;;;5053166;28;20087;-57
2022/06/15 01:06:57;;;;;;;8.15;3.55;;;12.00;99.90;;;;;;5053071;28;20053;-56
2022/06/15 01:09:34;;;;;;;7.57;3.50;;;13.00;99.90;;;;;;5043671;28;20041;-56
2022/06/15 01:12:18;;;;;;;7.78;3.30;;;12.90;99.90;;;;;;5032208;28;20062;-56
2022/06/15 01:15:02;;;;;;;6.88;3.30;;;12.00;99.90;;;;;;5032797;28;20468;-56
2022/06/15 01:17:33;;;;;;;7.53;3.28;;;11.80;99.90;;;;;;5039521;28;20502;-56
2022/06/15 01:20:31;;;;;;;7.85;3.55;;;12.70;99.90;;;;;;5053282;28;20120;-56
2022/06/15 01:23:26;;;;;;;7.50;3.60;;;11.80;99.90;;;;;;5053299;28;20102;-56
2022/06/15 01:26:23;;;;;;;8.75;3.90;;;11.80;99.90;;;;;;5053254;28;20053;-56
2022/06/15 01:28:58;;;;;;;9.55;4.60;;;11.80;99.90;;;;;;5052902;28;20412;-56
2022/06/15 01:31:35;;;;;;;9.27;4.37;;;11.70;99.90;;;;;;5053258;28;20106;-57
2022/06/15 01:34:27;;;;;;;11.13;4.88;;;11.70;99.90;;;;;;5051076;28;20063;-56
2022/06/15 01:37:05;;;;;;;10.80;4.53;;;11.70;99.90;;;;;;5032969;28;20117;-56
2022/06/15 01:39:42;;;;;;;8.98;4.40;;;11.40;99.90;;;;;;5033426;28;20102;-56
2022/06/15 01:42:45;;;;;;;10.18;4.93;;;11.60;99.90;;;;;;5033256;28;20053;-56
2022/06/15 01:45:15;;;;;;;10.07;5.00;;;11.50;99.90;;;;;;5015554;28;20133;-56
2022/06/15 01:47:44;;;;;;;12.52;4.93;;;11.60;99.90;;;;;;5033228;28;20377;-57
2022/06/15 01:50:18;;;;;;;8.80;4.88;;;11.60;99.90;;;;;;5032973;28;20049;-56
2022/06/15 01:52:52;;;;;;;12.65;5.45;;;12.00;99.90;;;;;;5032819;28;20056;-56
2022/06/15 01:55:27;;;;;;;9.68;5.25;;;11.70;99.90;;;;;;5033019;28;20424;-56
2022/06/15 01:57:55;;;;;;;11.77;4.90;;;11.40;99.90;;;;;;5032964;28;20049;-56
2022/06/15 02:00:22;;;;;;;13.80;5.63;;;11.60;99.90;;;;;;5032868;28;20096;-57
2022/06/15 02:02:54;;;;;;;12.07;5.30;;;11.70;99.90;;;;;;5031708;28;20057;-56
2022/06/15 02:05:51;;;;;;;8.60;5.72;;;11.50;99.90;;;;;;5032947;28;20049;-56
2022/06/15 02:08:36;;;;;;;10.18;5.38;;;11.20;99.90;;;;;;5036255;28;20384;-56
2022/06/15 02:11:02;;;;;;;11.00;5.57;;;;;;;;;;5052484;28;20049;-56
2022/06/15 02:13:47;;;;;;;12.00;5.78;;;11.10;99.90;;;;;;5052494;28;20041;-56
2022/06/15 02:16:46;;;;;;;15.90;6.10;;;11.50;99.90;;;;;;5052682;28;20045;-56
2022/06/15 02:19:17;;;;;;;9.85;5.80;;;11.00;99.90;;;;;;5034937;28;20056;-57
2022/06/15 02:21:47;;;;;;;8.88;5.75;;;11.30;99.90;;;;;;5034848;28;20057;-56
2022/06/15 02:24:15;;;;;;;12.23;6.15;;;11.20;99.90;;;;;;5052770;28;20562;-57
2022/06/15 02:26:41;;;;;;;14.23;6.38;;;11.50;99.90;;;;;;5056217;28;20131;-56
2022/06/15 02:29:17;;;;;;;11.15;6.68;;;11.40;99.90;;;;;;5056081;28;20116;-56
2022/06/15 02:31:43;;;;;;;10.73;5.90;;;11.10;99.90;;;;;;5056276;28;20045;-56
2022/06/15 02:34:09;;;;;;;11.85;6.03;;;11.30;99.90;;;;;;5056349;28;20121;-56
2022/06/15 02:36:36;;;;;;;15.85;6.38;;;11.10;99.90;;;;;;5056102;28;20045;-57
2022/06/15 02:39:04;;;;;;;12.80;6.45;;;11.00;99.90;;;;;;5056023;28;20049;-57
2022/06/15 02:41:30;;;;;;;11.75;6.72;;;11.10;99.90;;;;;;5055890;28;20044;-56
2022/06/15 02:43:59;;;;;;;14.70;7.13;;;11.20;99.90;;;;;;5055864;28;20040;-56
2022/06/15 02:46:27;;;;;;;11.05;6.72;;;11.40;99.90;;;;;;5056021;28;20045;-56
2022/06/15 02:48:54;;;;;;;14.85;6.60;;;11.10;99.90;;;;;;5055927;28;20059;-56
2022/06/15 02:51:27;;;;;;;13.48;6.78;;;10.80;99.90;;;;;;5055829;28;20076;-56
2022/06/15 02:53:58;;;;;;;16.95;7.03;;;11.30;99.90;;;;;;5055738;28;20097;-56
2022/06/15 02:56:24;;;;;;;15.98;7.40;;;10.90;99.90;;;;;;5055899;28;20048;-56
2022/06/15 02:58:53;;;;;;;14.43;7.22;;;10.30;99.90;;;;;;5055698;28;20037;-56
2022/06/15 03:01:19;;;;;;;14.07;7.60;;;11.10;99.90;;;;;;5055678;28;20128;-56
2022/06/15 03:03:47;;;;;;;11.73;6.88;;;11.30;99.90;;;;;;5055987;28;20195;-56
2022/06/15 03:06:16;;;;;;;13.00;7.70;;;11.00;99.90;;;;;;5055425;28;20438;-56
2022/06/15 03:08:42;;;;;;;14.52;7.93;;;10.80;99.90;;;;;;5055433;28;20051;-57
2022/06/15 03:11:08;;;;;;;13.88;8.32;;;10.90;99.90;;;;;;5055537;28;20128;-56
2022/06/15 03:13:34;;;;;;;16.38;8.40;;;10.40;99.90;;;;;;5055328;28;20052;-56
2022/06/15 03:16:02;;;;;;;15.20;8.57;;;10.90;99.90;;;;;;5055197;28;20470;-56
2022/06/15 03:18:28;;;;;;;15.10;8.75;;;11.00;99.90;;;;;;5055312;28;20463;-56
2022/06/15 03:21:02;;;;;;;20.80;9.30;;;11.10;99.90;;;;;;5055169;28;20044;-56
2022/06/15 03:23:30;;;;;;;14.07;9.20;;;10.90;99.90;;;;;;5055127;28;20045;-56
2022/06/15 03:25:57;;;;;;;17.13;9.10;;;10.80;99.90;;;;;;5055222;28;20056;-56
2022/06/15 03:28:23;;;;;;;13.57;9.35;;;10.60;99.90;;;;;;5054961;28;20500;-56
2022/06/15 03:30:49;;;;;;;15.90;9.65;;;10.90;99.90;;;;;;5055085;28;20049;-56
2022/06/15 03:33:16;;;;;;;16.95;9.63;;;11.20;99.90;;;;;;5054774;28;20053;-56
2022/06/15 03:35:42;;;;;;;18.55;9.63;;;10.90;99.90;;;;;;5054391;28;20052;-56
2022/06/15 03:38:08;;;;;;;19.13;9.85;;;10.50;99.90;;;;;;5054361;28;20045;-56
2022/06/15 03:40:42;;;;;;;15.55;9.60;;;8.00;99.90;;;;;;5037107;28;20484;-56
2022/06/15 03:43:08;;;;;;;14.18;9.80;;;11.10;99.90;;;;;;5054891;28;20059;-48
2022/06/15 03:45:34;;;;;;;13.00;9.65;;;11.10;99.90;;;;;;5036833;28;20559;-50
2022/06/15 03:48:00;;;;;;;18.75;10.10;;;10.90;99.90;;;;;;5054637;28;20040;-50
2022/06/15 03:50:31;;;;;;;18.73;9.93;;;11.10;99.90;;;;;;5054560;28;20492;-49
2022/06/15 03:52:58;;;;;;;19.13;10.65;;;11.10;99.90;;;;;;5054884;28;20049;-48
2022/06/15 03:55:23;;;;;;;19.05;9.73;;;11.20;99.90;;;;;;5054598;28;20048;-50
2022/06/15 03:57:49;;;;;;;15.50;10.10;;;11.10;99.90;;;;;;5054585;28;20406;-56
2022/06/15 04:00:18;;;;;;;14.35;9.40;;;11.50;99.90;;;;;;5054421;28;20045;-56
2022/06/15 04:02:45;;;;;;;15.13;9.15;;;12.00;99.90;;;;;;5054213;28;20056;-56
2022/06/15 04:05:22;;;;;;;14.52;8.82;;;12.60;99.90;;;;;;5054291;28;20091;-57
2022/06/15 04:10:33;;;;;;;12.40;7.78;;;13.30;99.90;;;;;;5054265;28;20052;-57
2022/06/15 04:12:58;;;;;;;15.88;7.97;;;13.70;99.90;;;;;;5054082;28;20053;-57
2022/06/15 04:15:24;;;;;;;12.60;7.60;;;13.60;99.90;;;;;;5054022;28;20102;-57
2022/06/15 04:17:50;;;;;;;10.68;7.50;;;13.50;99.90;;;;;;5054050;28;20115;-57
2022/06/15 04:20:33;;;;;;;12.38;7.28;;;13.80;99.90;;;;;;5054174;28;20046;-57
2022/06/15 04:23:05;;;;;;;15.65;7.85;;;13.90;99.90;;;;;;5054064;28;20048;-57
2022/06/15 04:25:34;;;;;;;13.13;7.15;;;13.10;99.90;;;;;;5053957;28;20060;-57
2022/06/15 04:28:00;;;;;;;16.90;7.40;;;13.20;99.90;;;;;;5053746;28;20492;-57
2022/06/15 04:30:26;;;;;;;16.95;7.68;;;13.10;99.90;;;;;;5053997;28;20049;-57
2022/06/15 04:32:52;;;;;;;15.35;7.22;;;14.50;99.90;;;;;;5053886;28;20377;-57
2022/06/15 04:35:18;;;;;;;10.85;6.40;;;15.30;99.90;;;;;;5053820;28;20041;-57
2022/06/15 04:37:44;;;;;;;12.23;6.57;;;16.10;99.90;;;;;;5053795;28;20045;-57
2022/06/15 04:40:12;;;;;;;10.35;6.63;;;17.40;99.90;;;;;;5053646;28;20045;-57
2022/06/15 04:42:39;;;;;;;13.35;5.90;;;17.40;99.90;;;;;;5035984;28;20563;-54
2022/06/15 04:45:05;;;;;;;9.40;6.10;;;18.30;99.90;;;;;;5053572;28;20546;-56
2022/06/15 04:47:31;;;;;;;11.05;6.10;;;20.00;99.90;;;;;;5053608;28;20052;-57
2022/06/15 04:49:57;;;;;;;9.60;5.63;;;20.00;99.90;;;;;;5053506;28;20056;-57
2022/06/15 04:52:22;;;;;;;11.15;6.18;;;20.60;99.90;;;;;;5053854;28;20045;-57
2022/06/15 04:54:48;;;;;;;10.50;6.00;;;21.70;99.90;;;;;;5053501;28;20380;-57
2022/06/15 04:57:14;;;;;;;11.55;5.97;;;21.50;99.90;;;;;;5052248;28;20093;-57
2022/06/15 04:59:40;;;;;;;13.70;6.13;;;21.80;98.70;;;;;;5053408;28;20499;-58
2022/06/15 05:02:06;;;;;;;12.30;5.53;;;21.80;97.40;;;;;;5053491;28;20067;-57
2022/06/15 05:04:31;;;;;;;8.60;5.55;;;21.90;96.60;;;;;;5053634;28;20068;-57
2022/06/15 05:06:57;;;;;;;9.90;5.72;;;21.10;98.90;;;;;;5053141;28;20044;-57
2022/06/15 05:09:23;;;;;;;10.45;5.38;;;21.90;94.40;;;;;;5053085;28;20048;-57
2022/06/15 05:11:48;;;;;;;8.57;5.53;;;22.50;98.50;;;;;;5053110;28;20044;-58
2022/06/15 05:14:14;;;;;;;10.75;5.38;;;22.70;91.70;;;;;;5053212;28;20079;-57
2022/06/15 05:16:40;;;;;;;14.05;5.38;;;24.10;92.70;;;;;;5052937;28;20049;-58
2022/06/15 05:19:06;;;;;;;9.40;5.25;;;23.70;83.10;;;;;;5052951;28;20041;-58
2022/06/15 05:21:37;;;;;;;8.55;5.20;;;24.30;78.50;;;;;;5053041;28;20041;-57
2022/06/15 05:24:03;;;;;;;10.80;5.20;;;24.90;77.00;;;;;;5052906;28;20399;-58
2022/06/15 05:26:29;;;;;;;11.88;5.32;;;25.50;77.70;;;;;;5052951;28;20037;-57
2022/06/15 05:28:55;;;;;;;9.63;5.43;;;25.60;67.40;;;;;;5053064;28;20400;-58
2022/06/15 05:31:22;;;;;;;8.57;5.28;;;26.00;64.50;;;;;;5052791;28;20049;-58
2022/06/15 05:33:53;;;;;;;9.00;4.78;;;26.40;61.80;;;;;;5052856;28;20057;-58
2022/06/15 05:36:22;;;;;;;10.75;4.90;;;26.90;60.50;;;;;;5052752;28;20060;-58
2022/06/15 05:38:47;;;;;;;10.60;5.28;;;27.40;58.20;;;;;;5035232;28;20519;-58
2022/06/15 05:41:13;;;;;;;10.77;4.90;;;28.30;66.00;;;;;;5052731;28;20044;-58
2022/06/15 05:46:39;;;;;;;9.32;4.65;;;28.50;54.00;;;;;;5030688;28;20563;-58
2022/06/15 05:49:06;;;;;;;8.68;4.85;;;28.00;60.00;;;;;;5030676;28;20382;-57
2022/06/15 05:51:32;;;;;;;7.53;4.50;;;28.10;52.00;;;;;;5030690;28;20045;-56
2022/06/15 05:53:58;;;;;;;10.40;4.38;;;27.90;52.00;;;;;;5030539;28;20049;-57
2022/06/15 05:56:24;;;;;;;8.27;4.70;;;28.10;51.80;;;;;;5030693;28;20045;-57
2022/06/15 05:58:50;;;;;;;10.00;4.43;;;28.20;58.80;;;;;;5030543;28;20188;-56
2022/06/15 06:01:29;;;;;;;10.35;4.57;;;27.90;50.60;;;;;;5033893;28;20054;-56
2022/06/15 06:03:55;;;;;;;10.85;4.30;;;27.60;60.50;;;;;;5019065;28;20053;-56
2022/06/15 06:06:21;;;;;;;8.60;4.28;;;28.20;62.10;;;;;;5032665;28;20061;-56
2022/06/15 06:08:47;;;;;;;9.52;4.07;;;28.00;58.10;;;;;;5033823;28;20103;-56
2022/06/15 06:11:13;;;;;;;9.20;4.60;;;28.20;49.20;;;;;;5031553;28;20041;-56
2022/06/15 06:13:38;;;;;;;10.85;4.90;;;28.30;57.30;;;;;;5031855;28;20129;-57
2022/06/15 06:16:04;;;;;;;11.45;4.72;;;28.20;49.00;;;;;;5032188;28;20037;-56
2022/06/15 06:18:30;;;;;;;9.02;4.60;;;28.50;48.90;;;;;;5032738;28;20045;-57
2022/06/15 06:20:56;;;;;;;7.68;4.50;;;28.90;48.20;;;;;;5030374;28;20120;-56
2022/06/15 06:23:21;;;;;;;10.63;4.65;;;28.70;55.60;;;;;;5053712;28;20044;-56
2022/06/15 06:25:50;;;;;;;10.38;4.72;;;28.80;47.50;;;;;;5052680;28;20041;-56
2022/06/15 06:28:40;;;;;;;8.32;4.55;;;28.70;57.80;;;;;;5035984;28;20060;-56
2022/06/15 06:31:09;;;;;;;12.88;5.10;;;28.80;47.20;;;;;;5052819;28;20467;-56
2022/06/15 06:33:36;;;;;;;10.32;4.75;;;28.50;47.20;;;;;;5053336;28;20056;-56
2022/06/15 06:36:06;;;;;;;9.48;4.82;;;28.50;47.30;;;;;;5052995;28;20067;-56
2022/06/15 06:38:32;;;;;;;9.18;4.45;;;28.90;56.30;;;;;;5054280;28;20083;-56
2022/06/15 06:40:59;;;;;;;7.97;5.07;;;28.50;47.30;;;;;;5053244;28;20041;-56
2022/06/15 06:43:25;;;;;;;11.73;5.22;;;28.60;47.20;;;;;;5055355;28;20051;-56
2022/06/15 06:45:51;;;;;;;10.65;4.60;;;28.60;57.50;;;;;;5055448;28;20048;-56
2022/06/15 06:48:17;;;;;;;9.15;4.45;;;28.60;47.10;;;;;;5054640;28;20399;-56
2022/06/15 06:50:43;;;;;;;11.07;4.65;;;28.80;58.80;;;;;;5054347;28;20060;-56
2022/06/15 06:53:11;;;;;;;10.73;4.60;;;29.00;56.00;;;;;;5051651;28;20045;-56
2022/06/15 06:55:37;;;;;;;10.20;4.93;;;28.80;46.60;;;;;;5054203;28;20041;-56
2022/06/15 06:58:03;;;;;;;9.85;4.57;;;28.40;46.80;;;;;;5054454;28;20401;-56
2022/06/15 07:00:32;;;;;;;12.48;4.38;;;28.40;57.40;;;;;;5035621;28;20057;-56
2022/06/15 07:02:59;;;;;;;11.00;4.10;;;29.00;59.10;;;;;;5052273;28;20054;-57
2022/06/15 07:05:24;;;;;;;10.20;4.70;;;28.80;47.90;;;;;;5054024;28;20431;-56
2022/06/15 07:07:50;;;;;;;10.68;4.45;;;28.40;47.80;;;;;;5054795;28;20126;-56
2022/06/15 07:10:16;;;;;;;6.78;3.90;;;27.80;56.50;;;;;;5054869;28;20377;-56
2022/06/15 07:12:42;;;;;;;12.05;4.80;;;27.10;56.60;;;;;;5054098;28;20126;-56
2022/06/15 07:15:10;;;;;;;8.98;3.88;;;26.80;50.00;;;;;;5054855;28;20107;-56
2022/06/15 07:17:37;;;;;;;9.95;4.00;;;26.50;51.80;;;;;;5054171;28;20044;-56
2022/06/15 07:20:03;;;;;;;13.63;3.97;;;26.30;52.50;;;;;;5053879;28;20033;-54
2022/06/15 07:22:29;;;;;;;9.13;3.70;;;26.20;61.40;;;;;;5053489;28;20056;-54
2022/06/15 07:24:56;;;;;;;8.63;3.60;;;26.30;62.80;;;;;;5053661;28;20044;-54
2022/06/15 07:27:22;;;;;;;8.65;4.05;;;26.00;54.10;;;;;;5053677;28;20505;-55
2022/06/15 07:29:49;;;;;;;16.05;3.80;;;25.70;54.60;;;;;;5053901;28;20094;-55
2022/06/15 07:32:16;;;;;;;6.88;3.58;;;25.70;54.80;;;;;;5053348;28;20562;-54
2022/06/15 07:34:42;;;;;;;7.78;3.10;;;25.40;54.70;;;;;;5053785;28;20056;-55
2022/06/15 07:37:10;;;;;;;9.05;3.70;;;25.40;54.90;;;;;;5052908;28;20037;-57
2022/06/15 07:39:37;;;;;;;7.18;3.35;;;26.50;65.00;;;;;;5034411;28;20476;-58
2022/06/15 07:42:05;;;;;;;11.13;3.30;;;25.40;65.30;;;;;;5052535;28;20152;-57
2022/06/15 07:44:33;;;;;;;9.25;3.10;;;25.00;63.10;;;;;;5052245;28;20393;-58
2022/06/15 07:49:57;;;;;;;8.45;3.33;;;24.80;54.40;;;;;;5053040;28;20506;-57
2022/06/15 07:52:35;;;;;;;9.40;3.47;;;24.60;62.90;;;;;;5050670;28;20110;-58
2022/06/15 07:55:01;;;;;;;9.32;2.80;;;24.50;54.40;;;;;;5053403;28;20045;-57
2022/06/15 07:57:27;;;;;;;7.85;2.28;;;24.20;55.20;;;;;;5053379;28;20455;-58
2022/06/15 07:59:53;;;;;;;10.35;2.80;;;24.20;55.50;;;;;;5018875;28;20056;-58
2022/06/15 08:02:19;;;;;;;10.35;2.88;;;24.40;55.30;;;;;;5052873;28;20036;-58
2022/06/15 08:04:45;;;;;;;9.35;2.80;;;24.00;55.50;;;;;;5053109;28;20511;-58
2022/06/15 08:07:13;;;;;;;7.43;2.60;;;23.70;55.70;;;;;;5053360;28;20048;-57
2022/06/15 08:09:39;;;;;;;9.27;2.88;;;23.60;56.60;;;;;;5052874;28;20480;-58
2022/06/15 08:12:11;;;;;;;8.07;2.65;;;25.00;64.40;;;;;;5034941;28;20384;-58
2022/06/15 08:14:40;;;;;;;6.45;2.30;;;23.80;55.50;;;;;;5052632;28;20477;-57
2022/06/15 08:17:10;;;;;;;5.95;2.28;;;23.70;55.30;;;;;;5052571;28;20120;-57
2022/06/15 08:19:40;;;;;;;5.90;2.40;;;23.50;54.70;;;;;;5052491;28;20043;-58
2022/06/15 08:22:08;;;;;;;6.93;2.28;;;23.30;55.20;;;;;;5052533;28;20059;-58
2022/06/15 08:24:34;;;;;;;6.30;2.35;;;23.10;55.20;;;;;;5052868;28;20487;-58
2022/06/15 08:27:01;;;;;;;5.65;2.20;;;23.10;56.10;;;;;;5050081;28;20056;-58
2022/06/15 08:29:27;;;;;;;12.35;2.70;;;23.10;55.00;;;;;;5033350;28;20048;-58
2022/06/15 08:31:57;;;;;;;6.53;2.40;;;23.00;55.80;;;;;;5046555;28;20037;-57
2022/06/15 08:34:26;;;;;;;5.25;2.00;;;22.80;62.80;;;;;;5048394;28;20056;-58
2022/06/15 08:36:52;;;;;;;6.30;2.20;;;21.90;63.50;;;;;;5046492;28;20377;-57
2022/06/15 08:39:18;;;;;;;5.78;2.30;;;22.80;55.20;;;;;;5050082;28;20052;-58
2022/06/15 08:42:08;;;;;;;6.50;2.15;;;22.60;55.40;;;;;;5052575;28;20048;-58
2022/06/15 08:44:53;;;;;;;6.90;2.33;;;22.80;56.10;;;;;;5052706;28;20045;-58
2022/06/15 08:47:50;;;;;;;9.45;2.05;;;22.90;64.10;;;;;;5052452;28;20107;-58
2022/06/15 08:50:34;;;;;;;4.80;2.00;;;23.10;54.30;;;;;;5052300;28;20041;-58
2022/06/15 08:53:27;;;;;;;4.57;2.00;;;22.80;54.10;;;;;;5052213;28;20088;-58
2022/06/15 08:56:14;;;;;;;6.82;2.20;;;22.80;54.00;;;;;;5052286;28;20076;-58
2022/06/15 08:59:01;;;;;;;4.55;2.10;;;22.80;53.90;;;;;;5035444;28;20060;-57
2022/06/15 09:01:39;;;;;;;4.47;2.00;;;22.80;53.70;;;;;;5037452;28;20121;-58
2022/06/15 09:04:11;;;;;;;4.55;2.10;;;22.50;62.70;;;;;;5047567;28;20124;-58
2022/06/15 09:06:57;;;;;;;4.68;1.95;;;22.60;54.50;;;;;;5035045;28;20092;-58
2022/06/15 09:10:03;;;;;;;8.80;2.38;;;22.70;55.30;;;;;;5032195;28;20049;-57
2022/06/15 09:12:52;;;;;;;6.85;2.40;;;22.70;54.60;;;;;;5017506;28;20084;-57
2022/06/15 09:15:42;;;;;;;4.90;2.00;;;22.30;62.80;;;;;;5031720;28;20047;-58
2022/06/15 09:18:27;;;;;;;4.85;2.10;;;23.00;61.90;;;;;;5041966;28;20049;-54
2022/06/15 09:21:26;;;;;;;11.00;2.08;;;22.40;54.20;;;;;;5045317;28;20484;-54
2022/06/15 09:24:07;;;;;;;6.68;2.20;;;22.40;55.00;;;;;;4999762;28;20049;-53
2022/06/15 09:26:40;;;;;;;4.78;2.00;;;22.40;55.10;;;;;;5017000;28;20049;-53
2022/06/15 09:29:13;;;;;;;5.03;2.00;;;22.40;55.10;;;;;;4998813;28;20037;-58
2022/06/15 09:31:50;;;;;;;4.45;2.20;;;22.30;55.50;;;;;;5035575;28;20045;-58
2022/06/15 09:34:23;;;;;;;4.35;2.10;;;21.80;62.30;;;;;;5038092;28;20046;-57
2022/06/15 09:36:53;;;;;;;6.85;2.20;;;22.60;55.20;;;;;;5043984;28;20388;-58
2022/06/15 09:39:20;;;;;;;4.63;2.15;;;22.60;55.20;;;;;;5039284;28;20045;-57
2022/06/15 09:42:04;;;;;;;8.73;2.13;;;22.60;55.20;;;;;;5019529;28;20124;-57
2022/06/15 09:44:52;;;;;;;4.20;2.00;;;22.60;62.40;;;;;;5035729;28;20126;-57
2022/06/15 09:47:28;;;;;;;5.43;2.10;;;22.60;54.80;;;;;;5024169;28;20053;-57
2022/06/15 09:50:15;;;;;;;6.13;2.08;;;22.60;54.70;;;;;;5019777;28;20139;-58
2022/06/15 09:52:55;;;;;;;5.82;2.00;;;22.70;54.50;;;;;;5020325;28;20056;-58
2022/06/15 09:55:27;;;;;;;4.90;2.00;;;22.60;53.90;;;;;;5044151;28;20052;-58
2022/06/15 09:57:54;;;;;;;7.45;2.10;;;22.60;54.80;;;;;;5041658;28;20120;-57
2022/06/15 10:00:21;;;;;;;5.68;1.95;;;22.60;54.80;;;;;;5025704;28;20120;-57
2022/06/15 10:02:52;;;;;;;3.70;1.80;;;22.50;55.20;;;;;;5054433;28;21417;-57
2022/06/15 10:05:46;;;;;;;6.13;2.03;;;22.60;54.90;;;;;;5036132;28;20046;-57
2022/06/15 10:08:13;;;;;;;4.07;1.80;;;22.60;53.80;;;;;;5040705;28;20085;-58
2022/06/15 10:10:55;;;;;;;5.68;2.30;;;22.60;54.70;;;;;;5035996;28;20041;-57
2022/06/15 10:13:20;;;;;;;3.88;2.08;;;22.80;54.70;;;;;;5036553;28;20099;-57
2022/06/15 10:15:54;;;;;;;3.30;1.90;;;22.90;61.30;;;;;;5037645;28;20041;-57
2022/06/15 10:18:26;;;;;;;6.88;1.90;;;23.00;53.10;;;;;;5046593;28;20424;-57
2022/06/15 10:21:30;;;;;;;6.25;2.13;;;23.00;52.80;;;;;;5036183;28;20046;-58
2022/06/15 10:24:04;;;;;;;6.35;2.15;;;23.10;53.00;;;;;;5039097;28;20103;-57
2022/06/15 10:26:41;;;;;;;4.43;2.10;;;23.10;52.70;;;;;;5016428;28;20485;-57
2022/06/15 10:29:18;;;;;;;4.43;1.80;;;23.10;52.50;;;;;;5025618;28;20045;-57
2022/06/15 10:32:05;;;;;;;4.25;2.22;;;23.20;52.00;;;;;;5050199;28;20077;-57
2022/06/15 10:35:05;;;;;;;6.32;2.25;;;23.10;58.80;;;;;;5041301;28;20531;-50
2022/06/15 10:37:49;;;;;;;4.82;2.10;;;23.30;52.30;;;;;;5056617;28;20391;-52
2022/06/15 10:40:18;;;;;;;5.65;2.22;;;23.40;53.50;;;;;;5050242;28;20041;-55
2022/06/15 10:42:51;;;;;;;4.43;2.13;;;23.30;52.60;;;;;;5036609;28;20045;-57
2022/06/15 10:45:37;;;;;;;3.95;2.05;;;23.20;52.70;;;;;;5038163;28;20073;-56
2022/06/15 10:48:06;;;;;;;3.67;1.75;;;23.20;52.40;;;;;;5031713;28;20073;-56
2022/06/15 10:50:47;;;;;;;6.45;2.35;;;23.40;61.50;;;;;;5036604;28;20045;-56
2022/06/15 10:53:30;;;;;;;6.03;1.92;;;23.40;52.70;;;;;;5038139;28;20053;-56
2022/06/15 11:04:34;;;;;;;5.30;2.00;;;23.80;51.80;;;;;;5054501;28;20079;-53
2022/06/15 11:07:07;;;;;;;5.75;1.83;;;23.70;51.70;;;;;;5035030;28;20480;-53
2022/06/15 11:09:59;;;;;;;4.55;1.80;;;23.70;51.90;;;;;;5035192;28;20115;-53
2022/06/15 11:12:48;;;;;;;6.85;2.72;;;24.20;60.50;;;;;;5054085;28;20451;-57
2022/06/15 11:15:14;;;;;;;7.50;2.15;;;23.40;58.70;;;;;;5052939;28;20488;-58
2022/06/15 11:18:03;;;;;;;7.15;2.40;;;23.50;59.30;;;;;;5054076;28;20039;-56
2022/06/15 11:20:47;;;;;;;5.80;2.10;;;23.40;52.10;;;;;;5054472;28;20059;-58
2022/06/15 11:23:21;;;;;;;5.55;2.20;;;23.70;53.70;;;;;;5053827;28;20430;-56
2022/06/15 11:29:18;;;;;;;5.68;2.00;;;23.70;51.80;;;;;;5049246;28;20044;-57
2022/06/15 11:31:44;;;;;;;7.03;2.30;;;24.00;59.40;;;;;;5052681;28;20523;-58
2022/06/15 11:34:19;;;;;;;7.65;2.47;;;23.90;52.10;;;;;;5053509;28;20048;-57
2022/06/15 11:37:03;;;;;;;5.63;2.22;;;24.00;51.80;;;;;;5051232;28;20060;-57
2022/06/15 11:39:38;;;;;;;4.20;2.10;;;24.10;52.50;;;;;;5033670;28;20110;-58
2022/06/15 11:42:10;;;;;;;5.35;2.00;;;24.10;58.80;;;;;;5053133;28;20443;-57
2022/06/15 11:44:40;;;;;;;5.38;2.20;;;24.20;51.50;;;;;;5052158;28;20058;-57
2022/06/15 11:47:19;;;;;;;7.30;2.55;;;24.00;51.90;;;;;;5053065;28;20044;-57
2022/06/15 11:50:12;;;;;;;4.40;2.20;;;23.80;52.90;;;;;;5053155;28;20132;-57
2022/06/15 11:52:50;;;;;;;4.75;2.40;;;23.80;54.90;;;;;;5051021;28;20049;-58
2022/06/15 11:55:34;;;;;;;11.10;2.22;;;24.00;54.70;;;;;;5035159;28;20049;-58
2022/06/15 11:58:18;;;;;;;4.82;2.22;;;24.10;54.70;;;;;;5052567;28;20037;-58
2022/06/15 12:01:07;;;;;;;9.95;2.08;;;24.10;53.20;;;;;;5050266;28;20044;-58
2022/06/15 12:04:15;;;;;;;5.30;2.20;;;24.20;52.90;;;;;;5034346;28;20123;-57
2022/06/15 12:06:52;;;;;;;4.97;2.20;;;24.20;53.20;;;;;;5053444;28;20041;-58
2022/06/15 12:09:39;;;;;;;6.32;2.53;;;24.40;53.30;;;;;;5053204;28;20049;-58
2022/06/15 12:12:39;;;;;;;7.63;2.30;;;24.60;52.70;;;;;;5053218;28;20072;-58
2022/06/15 12:15:45;;;;;;;5.70;2.28;;;24.70;52.80;;;;;;5052948;28;20037;-58
2022/06/15 12:18:19;;;;;;;6.05;2.30;;;24.60;52.50;;;;;;5010899;28;20042;-57
2022/06/15 12:20:51;;;;;;;6.75;2.30;;;24.50;52.40;;;;;;5010503;28;20378;-57
2022/06/15 12:23:20;;;;;;;5.35;2.40;;;24.70;60.00;;;;;;4994368;28;20647;-58
2022/06/15 12:26:00;;;;;;;5.50;2.38;;;24.50;52.10;;;;;;5010569;28;20566;-58
2022/06/15 12:28:51;;;;;;;6.53;2.00;;;24.50;52.20;;;;;;5010269;28;20057;-57
2022/06/15 12:31:36;;;;;;;6.88;2.30;;;24.60;51.80;;;;;;5010393;28;20069;-58
2022/06/15 12:34:24;;;;;;;6.03;2.47;;;24.70;52.10;;;;;;5010117;28;20077;-58
2022/06/15 12:37:15;;;;;;;5.93;2.47;;;24.80;53.20;;;;;;5010312;28;20125;-58
2022/06/15 12:39:57;;;;;;;10.15;2.67;;;24.80;52.30;;;;;;5010482;28;20042;-57
2022/06/15 12:42:22;;;;;;;5.50;2.35;;;24.80;52.20;;;;;;5010473;28;20050;-57
2022/06/15 12:45:19;;;;;;;8.48;2.50;;;24.70;52.40;;;;;;5010494;28;20050;-57
2022/06/15 12:47:56;;;;;;;5.03;2.70;;;24.80;52.30;;;;;;5011743;28;20064;-58
2022/06/15 12:50:34;;;;;;;6.28;2.47;;;24.70;51.70;;;;;;5052387;28;20546;-57
2022/06/15 12:53:05;;;;;;;8.20;2.35;;;24.70;52.60;;;;;;5034180;28;20434;-58
2022/06/15 12:55:47;;;;;;;5.60;2.45;;;24.70;59.20;;;;;;5052212;28;20045;-57
2022/06/15 12:58:31;;;;;;;5.63;2.22;;;24.80;52.20;;;;;;5052024;28;20120;-58
2022/06/15 13:01:19;;;;;;;3.63;2.20;;;24.70;58.10;;;;;;5048904;28;20127;-58
2022/06/15 13:03:51;;;;;;;6.28;2.40;;;24.60;50.80;;;;;;5047756;28;20057;-58
2022/06/15 13:06:32;;;;;;;7.38;2.47;;;25.20;59.00;;;;;;5052458;28;20238;-57
2022/06/15 13:09:14;;;;;;;7.82;2.40;;;24.70;51.60;;;;;;5051222;28;20051;-58
2022/06/15 13:12:02;;;;;;;5.35;2.60;;;24.70;51.50;;;;;;5049101;28;20049;-58
2022/06/15 13:14:42;;;;;;;4.55;2.22;;;24.80;50.50;;;;;;5033411;28;20588;-57
2022/06/15 13:17:15;;;;;;;6.15;2.47;;;24.80;51.60;;;;;;5046683;28;20090;-57
2022/06/15 13:19:48;;;;;;;4.97;2.42;;;25.00;51.00;;;;;;5050456;28;20072;-57
2022/06/15 13:22:40;;;;;;;4.68;2.30;;;25.00;51.10;;;;;;5051720;28;20043;-58
2022/06/15 13:25:10;;;;;;;5.25;2.60;;;25.20;53.20;;;;;;5034582;28;20044;-58
2022/06/15 13:27:47;;;;;;;5.97;2.20;;;25.40;51.70;;;;;;5051986;28;20075;-58
2022/06/15 13:30:24;;;;;;;7.20;2.30;;;25.40;51.20;;;;;;5052044;28;20164;-56
2022/06/15 13:32:53;;;;;;;7.35;2.88;;;25.40;50.80;;;;;;5047936;28;20037;-56
2022/06/15 13:35:25;;;;;;;6.90;2.17;;;25.20;50.40;;;;;;5051655;28;20496;-56
2022/06/15 13:38:27;;;;;;;5.32;2.42;;;25.20;51.40;;;;;;5052318;28;20060;-56
2022/06/15 13:40:53;;;;;;;8.20;2.53;;;25.20;51.10;;;;;;5053116;28;20055;-56
2022/06/15 13:43:19;;;;;;;8.15;2.70;;;26.40;52.70;;;;;;5052166;28;20468;-55